sensor_id;sensor_type;location;lat;lon;timestamp;pressure;altitude;pressure_sealevel;temperature;humidity
18500;BME280;9379;52.134;11.576;2022-11-30T00:01:59;101517.53;;;9.60;97.27
18500;BME280;9379;52.134;11.576;2022-11-30T00:04:26;101514.03;;;9.60;97.81
18500;BME280;9379;52.134;11.576;2022-11-30T00:06:53;101509.91;;;9.69;97.21
18500;BME280;9379;52.134;11.576;2022-11-30T00:09:22;101512.69;;;9.54;97.75
18500;BME280;9379;52.134;11.576;2022-11-30T00:11:50;101517.66;;;9.59;97.98
18500;BME280;9379;52.134;11.576;2022-11-30T00:14:16;101510.13;;;9.53;98.28
18500;BME280;9379;52.134;11.576;2022-11-30T00:16:43;101512.03;;;9.63;97.60
18500;BME280;9379;52.134;11.576;2022-11-30T00:19:10;101516.50;;;9.50;98.73
18500;BME280;9379;52.134;11.576;2022-11-30T00:21:37;101510.75;;;9.56;98.16
18500;BME280;9379;52.134;11.576;2022-11-30T00:24:04;101514.38;;;9.43;99.07
18500;BME280;9379;52.134;11.576;2022-11-30T00:26:31;101523.41;;;9.40;99.96
18500;BME280;9379;52.134;11.576;2022-11-30T00:28:59;101519.34;;;9.47;99.37
18500;BME280;9379;52.134;11.576;2022-11-30T00:31:26;101520.53;;;9.56;98.89
18500;BME280;9379;52.134;11.576;2022-11-30T00:33:53;101518.63;;;9.45;99.67
18500;BME280;9379;52.134;11.576;2022-11-30T00:36:21;101519.56;;;9.44;99.58
18500;BME280;9379;52.134;11.576;2022-11-30T00:38:51;101516.47;;;9.38;99.57
18500;BME280;9379;52.134;11.576;2022-11-30T00:41:19;101524.97;;;9.30;100.00
18500;BME280;9379;52.134;11.576;2022-11-30T00:43:45;101519.91;;;9.40;100.00
18500;BME280;9379;52.134;11.576;2022-11-30T00:46:14;101530.94;;;9.46;100.00
18500;BME280;9379;52.134;11.576;2022-11-30T00:48:41;101516.28;;;9.15;100.00
18500;BME280;9379;52.134;11.576;2022-11-30T00:51:09;101525.50;;;9.35;100.00
18500;BME280;9379;52.134;11.576;2022-11-30T00:53:36;101514.16;;;9.58;99.56
18500;BME280;9379;52.134;11.576;2022-11-30T00:56:04;101509.16;;;9.67;98.63
18500;BME280;9379;52.134;11.576;2022-11-30T00:58:31;101514.91;;;9.73;97.64
18500;BME280;9379;52.134;11.576;2022-11-30T01:00:58;101518.19;;;9.77;97.29
18500;BME280;9379;52.134;11.576;2022-11-30T01:03:26;101521.59;;;9.41;99.50
18500;BME280;9379;52.134;11.576;2022-11-30T01:05:53;101531.66;;;9.35;100.00
18500;BME280;9379;52.134;11.576;2022-11-30T01:08:20;101529.44;;;9.42;100.00
18500;BME280;9379;52.134;11.576;2022-11-30T01:10:46;101525.09;;;9.41;100.00
18500;BME280;9379;52.134;11.576;2022-11-30T01:13:17;101537.91;;;9.22;100.00
18500;BME280;9379;52.134;11.576;2022-11-30T01:15:44;101538.13;;;9.19;100.00
18500;BME280;9379;52.134;11.576;2022-11-30T01:18:11;101525.38;;;9.11;100.00
18500;BME280;9379;52.134;11.576;2022-11-30T01:20:40;101536.97;;;9.35;100.00
18500;BME280;9379;52.134;11.576;2022-11-30T01:23:08;101539.28;;;9.15;100.00
18500;BME280;9379;52.134;11.576;2022-11-30T01:25:35;101536.84;;;9.24;100.00
18500;BME280;9379;52.134;11.576;2022-11-30T01:28:01;101540.44;;;9.11;100.00
18500;BME280;9379;52.134;11.576;2022-11-30T01:30:28;101530.25;;;9.04;100.00
18500;BME280;9379;52.134;11.576;2022-11-30T01:32:55;101528.25;;;9.21;100.00
18500;BME280;9379;52.134;11.576;2022-11-30T01:35:26;101529.72;;;9.12;100.00
18500;BME280;9379;52.134;11.576;2022-11-30T01:37:55;101536.56;;;8.89;100.00
18500;BME280;9379;52.134;11.576;2022-11-30T01:40:22;101531.34;;;9.15;100.00
18500;BME280;9379;52.134;11.576;2022-11-30T01:42:48;101532.97;;;8.63;100.00
18500;BME280;9379;52.134;11.576;2022-11-30T01:45:15;101531.09;;;8.78;100.00
18500;BME280;9379;52.134;11.576;2022-11-30T01:47:45;101528.97;;;8.70;100.00
18500;BME280;9379;52.134;11.576;2022-11-30T01:50:17;101531.53;;;8.72;100.00
18500;BME280;9379;52.134;11.576;2022-11-30T01:52:48;101532.66;;;8.68;100.00
18500;BME280;9379;52.134;11.576;2022-11-30T01:55:21;101532.19;;;8.88;100.00
18500;BME280;9379;52.134;11.576;2022-11-30T01:57:51;101539.06;;;9.18;100.00
18500;BME280;9379;52.134;11.576;2022-11-30T02:00:20;101538.88;;;8.81;100.00
18500;BME280;9379;52.134;11.576;2022-11-30T02:02:53;101532.22;;;8.61;100.00
18500;BME280;9379;52.134;11.576;2022-11-30T02:05:21;101540.91;;;8.90;100.00
18500;BME280;9379;52.134;11.576;2022-11-30T02:07:48;101539.19;;;9.16;100.00
18500;BME280;9379;52.134;11.576;2022-11-30T02:10:20;101538.47;;;9.27;100.00
18500;BME280;9379;52.134;11.576;2022-11-30T02:13:05;101534.28;;;9.10;100.00
18500;BME280;9379;52.134;11.576;2022-11-30T02:15:40;101537.88;;;9.09;100.00
18500;BME280;9379;52.134;11.576;2022-11-30T02:18:13;101534.00;;;9.15;100.00
18500;BME280;9379;52.134;11.576;2022-11-30T02:21:03;101530.47;;;9.14;100.00
18500;BME280;9379;52.134;11.576;2022-11-30T02:23:45;101541.50;;;9.21;100.00
18500;BME280;9379;52.134;11.576;2022-11-30T02:26:25;101540.81;;;8.92;100.00
18500;BME280;9379;52.134;11.576;2022-11-30T02:29:04;101537.84;;;8.96;100.00
18500;BME280;9379;52.134;11.576;2022-11-30T02:31:39;101538.38;;;9.01;100.00
18500;BME280;9379;52.134;11.576;2022-11-30T02:34:09;101542.94;;;8.99;100.00
18500;BME280;9379;52.134;11.576;2022-11-30T02:36:39;101532.94;;;8.90;100.00
18500;BME280;9379;52.134;11.576;2022-11-30T02:39:06;101536.38;;;8.92;100.00
18500;BME280;9379;52.134;11.576;2022-11-30T02:41:36;101537.09;;;8.94;100.00
18500;BME280;9379;52.134;11.576;2022-11-30T02:44:06;101534.78;;;9.02;100.00
18500;BME280;9379;52.134;11.576;2022-11-30T02:46:41;101521.44;;;9.04;100.00
18500;BME280;9379;52.134;11.576;2022-11-30T02:49:16;101541.59;;;9.06;100.00
18500;BME280;9379;52.134;11.576;2022-11-30T02:51:46;101542.56;;;9.18;100.00
18500;BME280;9379;52.134;11.576;2022-11-30T02:54:20;101526.75;;;9.04;100.00
18500;BME280;9379;52.134;11.576;2022-11-30T02:56:46;101538.00;;;9.07;100.00
18500;BME280;9379;52.134;11.576;2022-11-30T02:59:15;101538.03;;;8.81;100.00
18500;BME280;9379;52.134;11.576;2022-11-30T03:01:42;101524.00;;;8.52;100.00
18500;BME280;9379;52.134;11.576;2022-11-30T03:04:09;101527.91;;;8.73;100.00
18500;BME280;9379;52.134;11.576;2022-11-30T03:06:36;101527.41;;;8.54;100.00
18500;BME280;9379;52.134;11.576;2022-11-30T03:09:03;101514.41;;;8.63;100.00
18500;BME280;9379;52.134;11.576;2022-11-30T03:11:30;101533.56;;;8.54;100.00
18500;BME280;9379;52.134;11.576;2022-11-30T03:13:57;101515.13;;;8.53;100.00
18500;BME280;9379;52.134;11.576;2022-11-30T03:16:25;101545.25;;;8.91;100.00
18500;BME280;9379;52.134;11.576;2022-11-30T03:18:52;101528.31;;;8.94;100.00
18500;BME280;9379;52.134;11.576;2022-11-30T03:21:19;101542.78;;;9.15;100.00
18500;BME280;9379;52.134;11.576;2022-11-30T03:23:46;101532.75;;;8.93;100.00
18500;BME280;9379;52.134;11.576;2022-11-30T03:26:12;101550.50;;;8.78;100.00
18500;BME280;9379;52.134;11.576;2022-11-30T03:28:39;101551.75;;;9.00;100.00
18500;BME280;9379;52.134;11.576;2022-11-30T03:31:09;101560.25;;;9.05;100.00
18500;BME280;9379;52.134;11.576;2022-11-30T03:33:39;101544.03;;;8.70;100.00
18500;BME280;9379;52.134;11.576;2022-11-30T03:36:07;101523.69;;;8.70;100.00
18500;BME280;9379;52.134;11.576;2022-11-30T03:38:37;101532.44;;;8.58;100.00
18500;BME280;9379;52.134;11.576;2022-11-30T03:41:06;101549.53;;;8.94;100.00
18500;BME280;9379;52.134;11.576;2022-11-30T03:43:34;101546.88;;;8.94;100.00
18500;BME280;9379;52.134;11.576;2022-11-30T03:46:01;101556.81;;;9.30;100.00
18500;BME280;9379;52.134;11.576;2022-11-30T03:48:28;101543.78;;;9.00;100.00
18500;BME280;9379;52.134;11.576;2022-11-30T03:50:57;101568.94;;;8.94;100.00
18500;BME280;9379;52.134;11.576;2022-11-30T03:53:24;101560.44;;;9.02;100.00
18500;BME280;9379;52.134;11.576;2022-11-30T03:55:52;101564.38;;;8.96;100.00
18500;BME280;9379;52.134;11.576;2022-11-30T03:58:19;101560.31;;;8.64;100.00
18500;BME280;9379;52.134;11.576;2022-11-30T04:00:46;101565.22;;;8.70;100.00
18500;BME280;9379;52.134;11.576;2022-11-30T04:03:14;101565.38;;;8.81;100.00
18500;BME280;9379;52.134;11.576;2022-11-30T04:05:41;101571.81;;;8.77;100.00
18500;BME280;9379;52.134;11.576;2022-11-30T04:08:09;101544.19;;;8.81;100.00
18500;BME280;9379;52.134;11.576;2022-11-30T04:10:36;101561.16;;;8.91;100.00
18500;BME280;9379;52.134;11.576;2022-11-30T04:13:03;101570.19;;;9.28;100.00
18500;BME280;9379;52.134;11.576;2022-11-30T04:15:30;101572.03;;;9.14;100.00
18500;BME280;9379;52.134;11.576;2022-11-30T04:17:56;101573.78;;;9.15;100.00
18500;BME280;9379;52.134;11.576;2022-11-30T04:20:23;101584.44;;;9.13;100.00
18500;BME280;9379;52.134;11.576;2022-11-30T04:22:51;101572.88;;;9.14;100.00
18500;BME280;9379;52.134;11.576;2022-11-30T04:25:21;101567.03;;;8.96;100.00
18500;BME280;9379;52.134;11.576;2022-11-30T04:27:48;101553.34;;;9.02;100.00
18500;BME280;9379;52.134;11.576;2022-11-30T04:30:15;101572.78;;;9.03;100.00
18500;BME280;9379;52.134;11.576;2022-11-30T04:32:42;101582.34;;;8.91;100.00
18500;BME280;9379;52.134;11.576;2022-11-30T04:35:09;101589.38;;;9.19;100.00
18500;BME280;9379;52.134;11.576;2022-11-30T04:37:37;101583.47;;;9.01;100.00
18500;BME280;9379;52.134;11.576;2022-11-30T04:40:05;101589.88;;;8.85;100.00
18500;BME280;9379;52.134;11.576;2022-11-30T04:42:36;101572.97;;;8.73;100.00
18500;BME280;9379;52.134;11.576;2022-11-30T04:45:04;101589.94;;;8.97;100.00
18500;BME280;9379;52.134;11.576;2022-11-30T04:47:31;101586.28;;;8.86;100.00
18500;BME280;9379;52.134;11.576;2022-11-30T04:49:58;101578.09;;;9.03;100.00
18500;BME280;9379;52.134;11.576;2022-11-30T04:52:24;101583.63;;;8.86;100.00
18500;BME280;9379;52.134;11.576;2022-11-30T04:54:51;101584.94;;;8.52;100.00
18500;BME280;9379;52.134;11.576;2022-11-30T04:57:18;101595.28;;;8.83;100.00
18500;BME280;9379;52.134;11.576;2022-11-30T04:59:46;101598.59;;;8.45;100.00
18500;BME280;9379;52.134;11.576;2022-11-30T05:02:13;101587.63;;;8.78;100.00
18500;BME280;9379;52.134;11.576;2022-11-30T05:04:40;101593.03;;;8.77;100.00
18500;BME280;9379;52.134;11.576;2022-11-30T05:07:07;101590.47;;;9.02;100.00
18500;BME280;9379;52.134;11.576;2022-11-30T05:09:34;101599.75;;;8.83;100.00
18500;BME280;9379;52.134;11.576;2022-11-30T05:12:01;101587.72;;;8.77;100.00
18500;BME280;9379;52.134;11.576;2022-11-30T05:14:28;101600.72;;;8.67;100.00
18500;BME280;9379;52.134;11.576;2022-11-30T05:16:57;101597.47;;;8.35;100.00
18500;BME280;9379;52.134;11.576;2022-11-30T05:19:23;101591.78;;;8.41;100.00
18500;BME280;9379;52.134;11.576;2022-11-30T05:21:50;101606.59;;;8.72;100.00
18500;BME280;9379;52.134;11.576;2022-11-30T05:24:17;101607.31;;;8.74;100.00
18500;BME280;9379;52.134;11.576;2022-11-30T05:26:44;101606.56;;;8.99;100.00
18500;BME280;9379;52.134;11.576;2022-11-30T05:29:11;101606.28;;;8.77;100.00
18500;BME280;9379;52.134;11.576;2022-11-30T05:31:38;101606.78;;;8.96;100.00
18500;BME280;9379;52.134;11.576;2022-11-30T05:34:06;101616.81;;;9.05;100.00
18500;BME280;9379;52.134;11.576;2022-11-30T05:36:33;101602.84;;;9.16;100.00
18500;BME280;9379;52.134;11.576;2022-11-30T05:39:00;101619.63;;;9.02;100.00
18500;BME280;9379;52.134;11.576;2022-11-30T05:41:27;101617.50;;;8.95;100.00
18500;BME280;9379;52.134;11.576;2022-11-30T05:43:54;101617.97;;;8.60;100.00
18500;BME280;9379;52.134;11.576;2022-11-30T05:46:21;101624.03;;;8.89;100.00
18500;BME280;9379;52.134;11.576;2022-11-30T05:48:49;101627.19;;;9.09;100.00
18500;BME280;9379;52.134;11.576;2022-11-30T05:51:18;101626.34;;;9.08;100.00
18500;BME280;9379;52.134;11.576;2022-11-30T05:53:46;101623.22;;;9.16;100.00
18500;BME280;9379;52.134;11.576;2022-11-30T05:56:14;101632.22;;;9.26;100.00
18500;BME280;9379;52.134;11.576;2022-11-30T05:58:42;101622.91;;;8.93;100.00
18500;BME280;9379;52.134;11.576;2022-11-30T06:01:16;101637.91;;;9.07;100.00
18500;BME280;9379;52.134;11.576;2022-11-30T06:03:44;101625.78;;;8.76;100.00
18500;BME280;9379;52.134;11.576;2022-11-30T06:06:13;101630.75;;;8.54;100.00
18500;BME280;9379;52.134;11.576;2022-11-30T06:08:43;101630.13;;;8.77;100.00
18500;BME280;9379;52.134;11.576;2022-11-30T06:11:10;101630.34;;;9.01;100.00
18500;BME280;9379;52.134;11.576;2022-11-30T06:13:38;101640.34;;;8.83;100.00
18500;BME280;9379;52.134;11.576;2022-11-30T06:16:06;101640.47;;;8.67;100.00
18500;BME280;9379;52.134;11.576;2022-11-30T06:18:34;101637.16;;;9.05;100.00
18500;BME280;9379;52.134;11.576;2022-11-30T06:21:03;101636.63;;;8.44;100.00
18500;BME280;9379;52.134;11.576;2022-11-30T06:23:31;101635.72;;;8.72;100.00
18500;BME280;9379;52.134;11.576;2022-11-30T06:26:03;101638.97;;;9.04;100.00
18500;BME280;9379;52.134;11.576;2022-11-30T06:28:31;101642.72;;;9.15;100.00
18500;BME280;9379;52.134;11.576;2022-11-30T06:30:58;101644.50;;;8.87;100.00
18500;BME280;9379;52.134;11.576;2022-11-30T06:33:25;101647.13;;;8.60;100.00
18500;BME280;9379;52.134;11.576;2022-11-30T06:35:53;101653.28;;;8.46;100.00
18500;BME280;9379;52.134;11.576;2022-11-30T06:38:20;101640.88;;;8.61;100.00
18500;BME280;9379;52.134;11.576;2022-11-30T06:40:48;101654.72;;;8.93;100.00
18500;BME280;9379;52.134;11.576;2022-11-30T06:43:16;101655.44;;;8.68;100.00
18500;BME280;9379;52.134;11.576;2022-11-30T06:45:44;101648.66;;;8.36;100.00
18500;BME280;9379;52.134;11.576;2022-11-30T06:48:11;101666.59;;;8.31;100.00
18500;BME280;9379;52.134;11.576;2022-11-30T06:50:38;101664.53;;;8.50;100.00
18500;BME280;9379;52.134;11.576;2022-11-30T06:53:05;101658.09;;;8.68;100.00
18500;BME280;9379;52.134;11.576;2022-11-30T06:55:32;101671.59;;;8.92;100.00
18500;BME280;9379;52.134;11.576;2022-11-30T06:58:04;101657.72;;;8.60;100.00
18500;BME280;9379;52.134;11.576;2022-11-30T07:00:33;101663.38;;;8.83;100.00
18500;BME280;9379;52.134;11.576;2022-11-30T07:03:00;101673.94;;;8.97;100.00
18500;BME280;9379;52.134;11.576;2022-11-30T07:05:27;101685.84;;;8.90;100.00
18500;BME280;9379;52.134;11.576;2022-11-30T07:07:55;101692.69;;;8.94;100.00
18500;BME280;9379;52.134;11.576;2022-11-30T07:10:21;101685.53;;;9.09;99.99
18500;BME280;9379;52.134;11.576;2022-11-30T07:12:48;101686.28;;;9.11;99.07
18500;BME280;9379;52.134;11.576;2022-11-30T07:15:16;101696.28;;;8.93;100.00
18500;BME280;9379;52.134;11.576;2022-11-30T07:17:44;101674.41;;;9.03;99.83
18500;BME280;9379;52.134;11.576;2022-11-30T07:20:12;101689.91;;;9.10;99.27
18500;BME280;9379;52.134;11.576;2022-11-30T07:22:39;101696.03;;;9.10;99.24
18500;BME280;9379;52.134;11.576;2022-11-30T07:25:06;101695.28;;;8.81;100.00
18500;BME280;9379;52.134;11.576;2022-11-30T07:28:05;101688.66;;;9.15;99.38
18500;BME280;9379;52.134;11.576;2022-11-30T07:30:33;101676.53;;;8.70;99.21
18500;BME280;9379;52.134;11.576;2022-11-30T07:33:02;101703.75;;;9.00;100.00
18500;BME280;9379;52.134;11.576;2022-11-30T07:35:28;101699.91;;;8.77;100.00
18500;BME280;9379;52.134;11.576;2022-11-30T07:37:55;101705.25;;;9.04;100.00
18500;BME280;9379;52.134;11.576;2022-11-30T07:40:22;101709.31;;;9.10;98.34
18500;BME280;9379;52.134;11.576;2022-11-30T07:42:53;101694.59;;;9.19;98.39
18500;BME280;9379;52.134;11.576;2022-11-30T07:45:20;101708.06;;;9.16;98.87
18500;BME280;9379;52.134;11.576;2022-11-30T07:47:47;101709.09;;;9.13;99.00
18500;BME280;9379;52.134;11.576;2022-11-30T07:50:18;101716.22;;;9.13;98.96
18500;BME280;9379;52.134;11.576;2022-11-30T07:52:45;101705.41;;;8.74;99.95
18500;BME280;9379;52.134;11.576;2022-11-30T07:55:12;101698.81;;;9.09;99.33
18500;BME280;9379;52.134;11.576;2022-11-30T07:57:39;101705.00;;;9.22;98.59
18500;BME280;9379;52.134;11.576;2022-11-30T08:00:07;101710.81;;;9.14;98.00
18500;BME280;9379;52.134;11.576;2022-11-30T08:02:35;101715.09;;;9.02;98.58
18500;BME280;9379;52.134;11.576;2022-11-30T08:05:02;101714.66;;;8.96;97.83
18500;BME280;9379;52.134;11.576;2022-11-30T08:07:31;101724.00;;;9.16;97.60
18500;BME280;9379;52.134;11.576;2022-11-30T08:09:58;101710.13;;;8.55;100.00
18500;BME280;9379;52.134;11.576;2022-11-30T08:12:25;101720.16;;;8.93;99.33
18500;BME280;9379;52.134;11.576;2022-11-30T08:14:51;101722.81;;;8.93;98.11
18500;BME280;9379;52.134;11.576;2022-11-30T08:17:18;101731.81;;;8.62;99.78
18500;BME280;9379;52.134;11.576;2022-11-30T08:19:45;101727.44;;;8.89;99.17
18500;BME280;9379;52.134;11.576;2022-11-30T08:22:12;101727.84;;;8.83;99.36
18500;BME280;9379;52.134;11.576;2022-11-30T08:24:40;101731.25;;;8.71;99.63
18500;BME280;9379;52.134;11.576;2022-11-30T08:27:08;101739.00;;;8.74;99.67
18500;BME280;9379;52.134;11.576;2022-11-30T08:29:35;101736.28;;;8.47;99.60
18500;BME280;9379;52.134;11.576;2022-11-30T08:32:02;101729.97;;;8.91;99.05
18500;BME280;9379;52.134;11.576;2022-11-30T08:34:29;101735.28;;;8.91;97.79
18500;BME280;9379;52.134;11.576;2022-11-30T08:36:56;101732.28;;;8.54;98.62
18500;BME280;9379;52.134;11.576;2022-11-30T08:39:22;101737.97;;;8.62;99.44
18500;BME280;9379;52.134;11.576;2022-11-30T08:45:01;101723.69;;;8.51;99.04
18500;BME280;9379;52.134;11.576;2022-11-30T08:47:27;101732.66;;;8.48;99.75
18500;BME280;9379;52.134;11.576;2022-11-30T08:49:55;101735.88;;;8.67;100.00
18500;BME280;9379;52.134;11.576;2022-11-30T08:52:23;101740.41;;;8.94;98.35
18500;BME280;9379;52.134;11.576;2022-11-30T08:54:50;101731.69;;;8.77;97.86
18500;BME280;9379;52.134;11.576;2022-11-30T08:57:18;101744.84;;;8.79;97.90
18500;BME280;9379;52.134;11.576;2022-11-30T08:59:46;101741.75;;;8.72;98.39
18500;BME280;9379;52.134;11.576;2022-11-30T09:02:16;101753.09;;;8.74;98.53
18500;BME280;9379;52.134;11.576;2022-11-30T09:04:44;101753.13;;;8.46;99.47
18500;BME280;9379;52.134;11.576;2022-11-30T09:07:12;101757.75;;;8.57;99.07
18500;BME280;9379;52.134;11.576;2022-11-30T09:09:38;101757.91;;;8.39;98.60
18500;BME280;9379;52.134;11.576;2022-11-30T09:12:06;101757.63;;;8.87;97.56
18500;BME280;9379;52.134;11.576;2022-11-30T09:14:33;101769.28;;;8.56;97.85
18500;BME280;9379;52.134;11.576;2022-11-30T09:17:00;101731.53;;;8.52;97.65
18500;BME280;9379;52.134;11.576;2022-11-30T09:19:28;101763.22;;;8.68;97.25
18500;BME280;9379;52.134;11.576;2022-11-30T09:21:55;101761.50;;;8.38;98.21
18500;BME280;9379;52.134;11.576;2022-11-30T09:24:28;101767.47;;;8.42;98.66
18500;BME280;9379;52.134;11.576;2022-11-30T09:26:54;101754.81;;;8.17;98.42
18500;BME280;9379;52.134;11.576;2022-11-30T09:29:22;101768.69;;;8.06;98.75
18500;BME280;9379;52.134;11.576;2022-11-30T09:31:49;101767.72;;;7.93;99.58
18500;BME280;9379;52.134;11.576;2022-11-30T09:34:16;101749.38;;;7.74;99.60
18500;BME280;9379;52.134;11.576;2022-11-30T09:36:44;101757.44;;;8.03;99.00
18500;BME280;9379;52.134;11.576;2022-11-30T09:39:11;101760.56;;;8.39;98.46
18500;BME280;9379;52.134;11.576;2022-11-30T09:42:05;101747.81;;;8.16;97.72
18500;BME280;9379;52.134;11.576;2022-11-30T09:50:40;101746.00;;;8.02;99.19
18500;BME280;9379;52.134;11.576;2022-11-30T09:53:14;101753.25;;;7.99;97.15
18500;BME280;9379;52.134;11.576;2022-11-30T09:55:45;101740.59;;;7.89;98.31
18500;BME280;9379;52.134;11.576;2022-11-30T09:58:22;101761.41;;;8.10;97.51
18500;BME280;9379;52.134;11.576;2022-11-30T10:00:53;101757.38;;;8.33;95.87
18500;BME280;9379;52.134;11.576;2022-11-30T10:03:21;101753.53;;;8.24;96.16
18500;BME280;9379;52.134;11.576;2022-11-30T10:05:51;101743.69;;;7.96;97.93
18500;BME280;9379;52.134;11.576;2022-11-30T10:08:34;101744.88;;;8.51;95.92
18500;BME280;9379;52.134;11.576;2022-11-30T10:11:19;101756.63;;;8.31;97.07
18500;BME280;9379;52.134;11.576;2022-11-30T10:13:58;101758.69;;;8.11;97.44
18500;BME280;9379;52.134;11.576;2022-11-30T10:16:34;101760.28;;;8.00;98.26
18500;BME280;9379;52.134;11.576;2022-11-30T10:19:13;101756.06;;;8.11;97.22
18500;BME280;9379;52.134;11.576;2022-11-30T10:21:57;101767.06;;;7.89;98.40
18500;BME280;9379;52.134;11.576;2022-11-30T10:24:47;101747.03;;;8.00;97.27
18500;BME280;9379;52.134;11.576;2022-11-30T10:27:28;101753.59;;;7.78;97.81
18500;BME280;9379;52.134;11.576;2022-11-30T10:29:59;101759.06;;;8.05;98.01
18500;BME280;9379;52.134;11.576;2022-11-30T10:32:34;101751.63;;;7.96;98.82
18500;BME280;9379;52.134;11.576;2022-11-30T10:35:16;101768.81;;;7.59;99.21
18500;BME280;9379;52.134;11.576;2022-11-30T10:37:45;101761.69;;;7.75;98.75
18500;BME280;9379;52.134;11.576;2022-11-30T10:40:18;101763.22;;;7.79;97.75
18500;BME280;9379;52.134;11.576;2022-11-30T10:42:49;101762.66;;;8.04;97.71
18500;BME280;9379;52.134;11.576;2022-11-30T10:45:19;101764.03;;;8.26;97.16
18500;BME280;9379;52.134;11.576;2022-11-30T10:47:50;101757.47;;;7.87;97.00
18500;BME280;9379;52.134;11.576;2022-11-30T10:50:25;101753.53;;;8.24;95.53
18500;BME280;9379;52.134;11.576;2022-11-30T10:52:55;101770.25;;;7.95;96.81
18500;BME280;9379;52.134;11.576;2022-11-30T10:55:25;101761.47;;;7.94;96.84
18500;BME280;9379;52.134;11.576;2022-11-30T10:57:59;101768.44;;;8.11;95.92
18500;BME280;9379;52.134;11.576;2022-11-30T11:00:29;101764.25;;;8.37;94.89
18500;BME280;9379;52.134;11.576;2022-11-30T11:02:56;101763.16;;;8.25;94.13
18500;BME280;9379;52.134;11.576;2022-11-30T11:05:25;101767.56;;;8.55;94.28
18500;BME280;9379;52.134;11.576;2022-11-30T11:07:57;101763.72;;;8.74;93.81
18500;BME280;9379;52.134;11.576;2022-11-30T11:10:30;101767.47;;;8.56;93.02
18500;BME280;9379;52.134;11.576;2022-11-30T11:12:58;101772.69;;;8.13;94.76
18500;BME280;9379;52.134;11.576;2022-11-30T11:15:27;101750.81;;;8.10;93.70
18500;BME280;9379;52.134;11.576;2022-11-30T11:18:19;101773.28;;;8.33;93.99
18500;BME280;9379;52.134;11.576;2022-11-30T11:20:47;101772.13;;;8.38;94.39
18500;BME280;9379;52.134;11.576;2022-11-30T11:23:20;101779.31;;;8.36;93.62
18500;BME280;9379;52.134;11.576;2022-11-30T11:25:50;101781.31;;;8.31;94.16
18500;BME280;9379;52.134;11.576;2022-11-30T11:28:19;101793.03;;;8.13;93.88
18500;BME280;9379;52.134;11.576;2022-11-30T11:30:51;101788.97;;;8.22;94.24
18500;BME280;9379;52.134;11.576;2022-11-30T11:33:21;101791.19;;;7.99;94.24
18500;BME280;9379;52.134;11.576;2022-11-30T11:35:49;101775.19;;;7.71;95.02
18500;BME280;9379;52.134;11.576;2022-11-30T11:38:25;101778.81;;;8.00;95.72
18500;BME280;9379;52.134;11.576;2022-11-30T11:41:01;101783.50;;;8.25;93.95
18500;BME280;9379;52.134;11.576;2022-11-30T11:43:29;101773.66;;;8.12;94.15
18500;BME280;9379;52.134;11.576;2022-11-30T11:45:58;101781.84;;;8.08;94.21
18500;BME280;9379;52.134;11.576;2022-11-30T11:48:29;101785.66;;;8.62;93.98
18500;BME280;9379;52.134;11.576;2022-11-30T11:50:59;101784.25;;;8.71;93.17
18500;BME280;9379;52.134;11.576;2022-11-30T11:53:39;101779.72;;;8.29;93.52
18500;BME280;9379;52.134;11.576;2022-11-30T11:56:12;101776.94;;;8.16;94.29
18500;BME280;9379;52.134;11.576;2022-11-30T11:58:46;101782.81;;;8.21;93.98
18500;BME280;9379;52.134;11.576;2022-11-30T12:01:20;101773.53;;;8.14;93.83
18500;BME280;9379;52.134;11.576;2022-11-30T12:03:59;101774.03;;;8.20;94.94
18500;BME280;9379;52.134;11.576;2022-11-30T12:06:28;101776.09;;;8.45;92.61
18500;BME280;9379;52.134;11.576;2022-11-30T12:09:01;101786.53;;;8.33;94.13
18500;BME280;9379;52.134;11.576;2022-11-30T12:11:38;101771.31;;;8.22;94.28
18500;BME280;9379;52.134;11.576;2022-11-30T12:14:10;101786.53;;;7.88;94.69
18500;BME280;9379;52.134;11.576;2022-11-30T12:16:54;101786.88;;;8.12;93.88
18500;BME280;9379;52.134;11.576;2022-11-30T12:19:31;101779.72;;;8.29;93.80
18500;BME280;9379;52.134;11.576;2022-11-30T12:22:08;101784.72;;;8.49;92.63
18500;BME280;9379;52.134;11.576;2022-11-30T12:25:00;101776.47;;;8.54;92.25
18500;BME280;9379;52.134;11.576;2022-11-30T12:27:39;101762.47;;;8.22;92.41
18500;BME280;9379;52.134;11.576;2022-11-30T12:30:14;101785.69;;;8.32;93.16
18500;BME280;9379;52.134;11.576;2022-11-30T12:35:48;101789.34;;;8.45;93.44
18500;BME280;9379;52.134;11.576;2022-11-30T12:38:24;101789.91;;;8.20;93.15
18500;BME280;9379;52.134;11.576;2022-11-30T12:40:59;101791.81;;;8.48;92.70
18500;BME280;9379;52.134;11.576;2022-11-30T12:43:39;101783.97;;;8.75;92.12
18500;BME280;9379;52.134;11.576;2022-11-30T12:46:13;101800.72;;;8.62;92.95
18500;BME280;9379;52.134;11.576;2022-11-30T12:48:48;101796.22;;;8.34;92.54
18500;BME280;9379;52.134;11.576;2022-11-30T12:51:21;101795.81;;;8.70;93.34
18500;BME280;9379;52.134;11.576;2022-11-30T12:53:54;101778.16;;;8.55;91.68
18500;BME280;9379;52.134;11.576;2022-11-30T12:56:31;101771.56;;;8.47;91.78
18500;BME280;9379;52.134;11.576;2022-11-30T12:59:16;101781.13;;;8.50;91.59
18500;BME280;9379;52.134;11.576;2022-11-30T13:02:07;101787.25;;;8.36;92.64
18500;BME280;9379;52.134;11.576;2022-11-30T13:04:41;101771.38;;;8.51;92.40
18500;BME280;9379;52.134;11.576;2022-11-30T13:07:18;101781.72;;;8.25;92.22
18500;BME280;9379;52.134;11.576;2022-11-30T13:09:51;101777.78;;;8.02;92.44
18500;BME280;9379;52.134;11.576;2022-11-30T13:12:24;101788.56;;;8.43;91.31
18500;BME280;9379;52.134;11.576;2022-11-30T13:15:04;101781.22;;;8.33;90.60
18500;BME280;9379;52.134;11.576;2022-11-30T13:17:31;101799.94;;;8.45;91.92
18500;BME280;9379;52.134;11.576;2022-11-30T13:20:04;101795.41;;;8.32;91.33
18500;BME280;9379;52.134;11.576;2022-11-30T13:22:41;101796.34;;;8.46;90.83